Time;durP1;ratioP1;P1;durP2;ratioP2;P2;SDS_P1;SDS_P2;PMS_P1;PMS_P2;Temp;Humidity;BMP_temperature;BMP_pressure;BME280_temperature;BME280_humidity;BME280_pressure;Samples;Min_cycle;Max_cycle;Signal;HPM_P1;HPM_P2
2023/10/11 00:02:52;;;;;;;22.88;11.75;;;19.10;1.00;;;;;;6096694;23;20022;-75
2023/10/11 00:05:19;;;;;;;27.10;11.80;;;18.90;1.00;;;;;;6095893;23;20022;-75
2023/10/11 00:07:45;;;;;;;24.70;11.35;;;18.80;1.00;;;;;;6095453;23;20088;-76
2023/10/11 00:10:11;;;;;;;22.70;11.57;;;18.90;1.00;;;;;;6095099;23;20050;-75
2023/10/11 00:12:41;;;;;;;25.83;11.82;;;18.90;1.00;;;;;;6071256;23;20024;-73
2023/10/11 00:15:09;;;;;;;24.23;11.48;;;18.80;1.00;;;;;;6094171;23;20395;-74
2023/10/11 00:17:36;;;;;;;22.35;11.05;;;19.00;1.00;;;;;;6096395;23;20020;-73
2023/10/11 00:20:19;;;;;;;24.63;10.23;;;19.80;1.00;;;;;;6095902;23;20014;-74
2023/10/11 00:22:45;;;;;;;23.25;11.45;;;18.90;1.00;;;;;;6071215;23;20085;-73
2023/10/11 00:25:23;;;;;;;25.55;11.13;;;19.00;1.00;;;;;;6071784;23;20018;-74
2023/10/11 00:27:49;;;;;;;24.65;10.88;;;19.40;1.00;;;;;;6096547;23;20034;-74
2023/10/11 00:30:17;;;;;;;23.88;11.32;;;18.90;1.00;;;;;;6093892;23;20088;-74
2023/10/11 00:32:45;;;;;;;26.10;12.10;;;18.70;1.00;;;;;;6094401;23;20093;-73
2023/10/11 00:35:18;;;;;;;19.70;10.25;;;18.80;3.50;;;;;;6072379;23;20461;-74
2023/10/11 00:37:47;;;;;;;19.95;10.60;;;18.90;5.30;;;;;;6095608;23;20018;-74
2023/10/11 00:40:14;;;;;;;21.25;10.55;;;19.20;9.10;;;;;;6095228;23;20018;-74
2023/10/11 00:42:41;;;;;;;21.75;10.63;;;18.90;8.00;;;;;;6094747;23;20494;-73
2023/10/11 00:45:08;;;;;;;27.35;10.65;;;18.70;10.80;;;;;;6072225;23;20409;-74
2023/10/11 00:47:40;;;;;;;23.58;11.20;;;19.20;6.30;;;;;;6095857;23;20014;-73
2023/10/11 00:50:14;;;;;;;24.92;11.07;;;19.00;11.90;;;;;;6096295;23;20010;-74
2023/10/11 00:52:42;;;;;;;23.05;9.73;;;19.10;11.30;;;;;;6096999;23;20096;-74
2023/10/11 00:55:16;;;;;;;17.42;9.80;;;19.30;13.50;;;;;;6098313;23;20152;-74
2023/10/11 00:57:48;;;;;;;24.67;9.57;;;18.60;12.60;;;;;;6097457;23;20017;-74
2023/10/11 01:00:21;;;;;;;27.73;10.48;;;18.90;1.00;;;;;;6097452;23;20395;-74
2023/10/11 01:02:52;;;;;;;24.35;11.00;;;19.20;1.00;;;;;;6097627;23;20096;-74
2023/10/11 01:05:22;;;;;;;19.52;9.32;;;18.90;1.00;;;;;;6074617;23;20032;-73
2023/10/11 01:07:51;;;;;;;24.08;10.02;;;18.80;18.10;;;;;;6097836;23;20029;-74
2023/10/11 01:10:22;;;;;;;25.85;11.27;;;18.70;13.60;;;;;;6073319;23;20057;-73
2023/10/11 01:12:48;;;;;;;22.50;9.82;;;18.80;18.40;;;;;;6098057;23;20093;-74
2023/10/11 01:15:15;;;;;;;24.23;9.98;;;19.00;20.00;;;;;;6098402;23;20534;-73
2023/10/11 01:17:40;;;;;;;24.02;11.02;;;18.90;18.70;;;;;;6096541;23;20347;-73
2023/10/11 01:20:13;;;;;;;18.85;8.68;;;18.90;22.60;;;;;;6097020;23;20023;-74
2023/10/11 01:22:41;;;;;;;23.83;9.85;;;18.90;21.40;;;;;;6072728;23;20351;-74
2023/10/11 01:25:07;;;;;;;21.05;9.43;;;18.20;20.90;;;;;;6097183;23;20092;-74
2023/10/11 01:27:36;;;;;;;22.88;9.40;;;18.70;25.80;;;;;;6122555;23;20097;-73
2023/10/11 01:30:09;;;;;;;21.45;9.32;;;19.00;28.70;;;;;;6072493;23;20010;-73
2023/10/11 01:32:41;;;;;;;24.58;9.75;;;18.90;25.50;;;;;;6095756;23;20072;-73
2023/10/11 01:35:19;;;;;;;22.67;9.65;;;19.00;33.00;;;;;;6072502;23;20355;-74
2023/10/11 01:37:48;;;;;;;23.13;8.15;;;18.70;33.30;;;;;;6095025;23;20018;-73
2023/10/11 01:40:20;;;;;;;18.13;8.48;;;19.10;36.30;;;;;;6070773;23;20028;-73
2023/10/11 01:42:53;;;;;;;19.33;8.95;;;18.40;38.70;;;;;;6095150;23;20014;-74
2023/10/11 01:45:19;;;;;;;21.75;8.43;;;20.50;39.30;;;;;;6093600;23;20073;-74
2023/10/11 01:47:50;;;;;;;22.23;9.00;;;18.50;35.50;;;;;;6095180;23;20025;-74
2023/10/11 01:50:17;;;;;;;22.75;8.75;;;18.10;18.20;;;;;;6073304;23;20014;-74
2023/10/11 01:52:47;;;;;;;20.95;9.23;;;18.80;32.00;;;;;;6073570;23;20329;-74
2023/10/11 01:55:14;;;;;;;19.77;8.43;;;18.20;29.00;;;;;;6072824;23;20014;-74
2023/10/11 01:57:45;;;;;;;19.75;8.68;;;18.80;31.00;;;;;;6097250;23;20068;-74
2023/10/11 02:00:15;;;;;;;20.70;8.05;;;19.00;32.20;;;;;;6096390;23;20071;-73
2023/10/11 02:02:47;;;;;;;19.95;9.23;;;19.10;24.70;;;;;;6096330;23;20017;-74
2023/10/11 02:05:14;;;;;;;22.85;8.82;;;19.20;28.80;;;;;;6097335;23;20486;-74
2023/10/11 02:07:39;;;;;;;23.13;9.48;;;18.90;28.60;;;;;;6072587;23;20093;-73
2023/10/11 02:10:12;;;;;;;18.38;8.23;;;19.30;27.90;;;;;;6073042;23;20045;-73
2023/10/11 02:12:46;;;;;;;17.02;8.07;;;19.00;24.10;;;;;;6097010;23;20065;-74
2023/10/11 02:15:21;;;;;;;22.65;8.48;;;19.60;23.00;;;;;;6097298;23;20012;-75
2023/10/11 02:17:48;;;;;;;19.52;9.10;;;19.00;28.70;;;;;;6095333;23;20044;-74
2023/10/11 02:20:15;;;;;;;19.30;8.98;;;19.00;27.70;;;;;;6071440;23;20021;-75
2023/10/11 02:22:44;;;;;;;22.67;9.52;;;18.40;22.40;;;;;;6094816;23;20037;-75
2023/10/11 02:25:14;;;;;;;21.55;9.50;;;19.00;24.90;;;;;;6096955;23;20014;-75
2023/10/11 02:27:41;;;;;;;24.42;8.82;;;19.50;25.20;;;;;;6097271;23;20017;-75
2023/10/11 02:30:13;;;;;;;20.35;8.32;;;18.00;21.10;;;;;;6096665;23;20041;-75
2023/10/11 02:32:45;;;;;;;18.75;8.40;;;18.70;19.60;;;;;;6096398;23;20025;-75
2023/10/11 02:35:13;;;;;;;19.95;9.35;;;18.70;10.60;;;;;;6096792;23;20010;-75
2023/10/11 02:37:45;;;;;;;18.60;8.80;;;18.80;11.50;;;;;;6095845;23;20089;-74
2023/10/11 02:40:22;;;;;;;23.85;8.50;;;18.60;23.50;;;;;;6096477;23;20456;-75
2023/10/11 02:42:50;;;;;;;20.27;8.43;;;18.80;22.60;;;;;;6071867;23;20490;-75
2023/10/11 02:45:19;;;;;;;21.65;8.60;;;18.90;22.80;;;;;;6072310;23;20542;-75
2023/10/11 02:47:59;;;;;;;21.38;8.50;;;19.00;19.20;;;;;;6073170;23;20014;-74
2023/10/11 02:50:25;;;;;;;14.77;8.30;;;18.80;21.00;;;;;;6096304;23;20032;-74
2023/10/11 02:52:59;;;;;;;22.17;9.00;;;20.10;21.80;;;;;;6072125;23;20010;-74
2023/10/11 02:55:25;;;;;;;20.00;8.47;;;19.10;16.80;;;;;;6097139;23;20305;-74
2023/10/11 02:58:06;;;;;;;18.23;7.90;;;18.90;15.80;;;;;;6095528;23;20020;-74
2023/10/11 03:00:36;;;;;;;17.48;8.57;;;19.10;1.00;;;;;;6071670;23;20325;-75
2023/10/11 03:03:07;;;;;;;18.30;7.95;;;19.00;13.90;;;;;;6096404;23;20114;-75
2023/10/11 03:05:37;;;;;;;17.95;8.32;;;19.00;12.60;;;;;;6096335;23;20013;-75
2023/10/11 03:08:20;;;;;;;20.13;9.02;;;18.70;14.10;;;;;;6096468;23;20164;-75
2023/10/11 03:10:53;;;;;;;21.47;8.70;;;19.10;12.90;;;;;;6095183;23;20403;-74
2023/10/11 03:13:29;;;;;;;18.10;7.70;;;18.80;12.60;;;;;;6096030;23;20359;-74
2023/10/11 03:15:57;;;;;;;18.50;7.55;;;19.10;13.30;;;;;;6096088;23;20307;-74
2023/10/11 03:18:31;;;;;;;16.58;7.40;;;19.10;12.70;;;;;;6072891;23;20037;-74
2023/10/11 03:21:16;;;;;;;;;;;18.60;12.00;;;;;;6072801;23;20476;-74
2023/10/11 03:23:45;;;;;;;17.70;8.45;;;18.80;2.40;;;;;;6073081;23;19964;-74
2023/10/11 03:26:31;;;;;;;19.75;8.07;;;18.80;6.90;;;;;;6097189;23;20018;-74
2023/10/11 03:29:04;;;;;;;17.15;7.75;;;18.80;9.50;;;;;;6072876;23;20467;-74
2023/10/11 03:31:31;;;;;;;17.27;7.30;;;18.60;8.70;;;;;;6096985;23;20006;-74
2023/10/11 03:34:01;;;;;;;20.58;8.63;;;19.00;7.00;;;;;;6083855;23;20014;-74
2023/10/11 03:36:34;;;;;;;18.48;7.45;;;18.60;8.20;;;;;;6121045;23;20018;-74
2023/10/11 03:39:09;;;;;;;16.65;7.15;;;18.80;7.60;;;;;;6121150;23;20109;-74
2023/10/11 03:41:35;;;;;;;;;;;19.10;7.40;;;;;;6121983;23;20091;-74
2023/10/11 03:44:09;;;;;;;20.98;8.27;;;18.80;1.00;;;;;;6096651;23;19924;-74
2023/10/11 03:46:36;;;;;;;20.35;7.80;;;18.70;6.30;;;;;;6097038;23;20025;-75
2023/10/11 03:52:00;;;;;;;18.10;7.68;;;18.40;5.80;;;;;;6087906;23;20014;-74
2023/10/11 03:54:27;;;;;;;17.50;8.40;;;18.80;5.40;;;;;;6096243;23;20411;-74
2023/10/11 03:56:54;;;;;;;23.67;8.32;;;18.80;4.90;;;;;;6096100;23;20093;-74
2023/10/11 03:59:21;;;;;;;20.17;8.23;;;18.70;4.50;;;;;;6095610;23;20232;-74
2023/10/11 04:01:49;;;;;;;17.73;7.93;;;18.80;7.50;;;;;;6120353;23;20049;-74
2023/10/11 04:04:16;;;;;;;19.13;7.80;;;18.60;4.60;;;;;;6121425;23;20021;-75
2023/10/11 04:06:42;;;;;;;19.15;7.72;;;19.00;4.60;;;;;;6120306;23;20495;-74
2023/10/11 04:09:22;;;;;;;22.67;7.78;;;18.60;3.80;;;;;;6119748;23;20017;-74
2023/10/11 04:11:55;;;;;;;21.15;8.40;;;18.10;5.70;;;;;;6119186;23;20028;-74
2023/10/11 04:14:39;;;;;;;19.67;7.57;;;18.70;4.70;;;;;;6094874;23;20006;-74
2023/10/11 04:19:48;;;;;;;22.38;8.90;;;19.00;1.00;;;;;;6118153;23;20029;-74
2023/10/11 04:22:17;;;;;;;19.10;8.55;;;19.00;1.60;;;;;;6120482;23;20058;-74
2023/10/11 04:24:45;;;;;;;17.08;7.53;;;18.10;5.60;;;;;;6095447;23;20013;-74
2023/10/11 04:29:52;;;;;;;20.08;8.15;;;18.20;5.10;;;;;;6121972;23;20355;-74
2023/10/11 04:38:01;;;;;;;16.83;7.70;;;18.80;3.40;;;;;;6097804;23;20096;-74
2023/10/11 04:43:25;;;;;;;17.50;7.40;;;18.50;7.30;;;;;;6097802;23;20134;-74
2023/10/11 04:45:55;;;;;;;25.48;8.80;;;18.10;6.80;;;;;;6098031;23;20018;-74
2023/10/11 04:48:36;;;;;;;16.48;7.70;;;18.70;9.30;;;;;;6098509;23;20006;-74
2023/10/11 04:53:56;;;;;;;16.10;8.02;;;18.40;9.40;;;;;;6098166;23;20013;-74
2023/10/11 05:01:58;;;;;;;17.77;9.05;;;18.30;1.00;;;;;;6096897;23;20097;-74
2023/10/11 05:04:28;;;;;;;18.73;8.45;;;18.90;4.30;;;;;;6097894;23;20014;-74
2023/10/11 05:07:03;;;;;;;21.40;7.75;;;18.30;7.20;;;;;;6097673;23;20097;-74
2023/10/11 05:09:38;;;;;;;16.48;8.82;;;18.90;17.00;;;;;;6097649;23;20017;-74
2023/10/11 05:12:19;;;;;;;20.77;8.73;;;18.40;7.20;;;;;;6096634;23;20096;-74
2023/10/11 05:20:23;;;;;;;22.05;8.00;;;18.70;19.30;;;;;;6096540;23;20490;-74
2023/10/11 05:28:07;;;;;;;17.42;8.35;;;18.80;14.20;;;;;;6095298;23;20022;-74
2023/10/11 05:30:37;;;;;;;15.90;8.20;;;19.10;5.10;;;;;;6096006;23;20487;-74
2023/10/11 05:36:14;;;;;;;19.35;8.80;;;18.50;5.50;;;;;;6120064;23;20022;-74
2023/10/11 05:52:19;;;;;;;20.52;10.13;;;18.80;15.40;;;;;;6121631;23;20546;-75
2023/10/11 05:54:45;;;;;;;20.17;9.50;;;18.80;29.20;;;;;;6120689;23;20021;-75
2023/10/11 05:57:13;;;;;;;18.45;8.68;;;18.70;33.60;;;;;;6094277;23;20014;-75
2023/10/11 05:59:42;;;;;;;17.65;8.35;;;18.80;37.40;;;;;;6095614;23;20017;-75
2023/10/11 06:02:13;;;;;;;17.88;7.97;;;19.60;41.40;;;;;;6119137;23;20021;-75
2023/10/11 06:04:42;;;;;;;25.30;9.50;;;19.30;46.20;;;;;;6094455;23;20017;-75
2023/10/11 06:07:13;;;;;;;20.00;9.27;;;18.80;53.50;;;;;;6093617;23;20025;-75
2023/10/11 06:09:46;;;;;;;20.35;8.85;;;19.00;56.00;;;;;;6091431;23;20478;-75
2023/10/11 06:12:25;;;;;;;18.38;9.18;;;19.20;60.70;;;;;;6117829;23;20017;-75
2023/10/11 06:14:55;;;;;;;16.17;8.45;;;19.20;55.10;;;;;;6121480;23;20128;-75
2023/10/11 06:17:26;;;;;;;17.30;8.75;;;18.90;71.10;;;;;;6097658;23;20018;-75
2023/10/11 06:20:10;;;;;;;18.98;10.07;;;18.60;70.40;;;;;;6121494;23;20109;-75
2023/10/11 06:22:36;;;;;;;24.33;9.25;;;19.00;73.90;;;;;;6097501;23;20025;-75
2023/10/11 06:25:07;;;;;;;15.88;9.32;;;19.30;77.20;;;;;;6122102;23;20014;-75
2023/10/11 06:30:17;;;;;;;21.80;8.75;;;18.50;64.60;;;;;;6121340;23;20014;-75
2023/10/11 06:32:43;;;;;;;17.33;8.88;;;20.30;84.40;;;;;;6097503;23;20010;-75
2023/10/11 06:35:16;;;;;;;19.25;8.77;;;18.90;88.40;;;;;;6097143;23;20333;-75
2023/10/11 06:37:42;;;;;;;13.88;8.73;;;18.90;89.00;;;;;;6097516;23;20064;-75
2023/10/11 06:40:09;;;;;;;16.60;8.90;;;18.70;99.40;;;;;;6096795;23;20021;-75
2023/10/11 06:42:35;;;;;;;17.92;8.73;;;18.90;99.90;;;;;;6073776;23;20395;-75
2023/10/11 06:45:05;;;;;;;18.00;8.55;;;18.70;99.90;;;;;;6073563;23;20112;-76
2023/10/11 06:47:33;;;;;;;21.13;8.35;;;18.70;99.90;;;;;;6123141;23;20360;-75
2023/10/11 06:50:10;;;;;;;18.63;7.88;;;18.10;99.90;;;;;;6096373;23;20033;-75
2023/10/11 06:52:37;;;;;;;16.60;8.70;;;19.30;99.90;;;;;;6073509;23;20006;-75
2023/10/11 06:55:18;;;;;;;17.98;9.55;;;18.50;99.90;;;;;;6097736;23;20013;-75
2023/10/11 06:57:51;;;;;;;18.65;8.70;;;18.60;98.90;;;;;;6097582;23;20523;-75
2023/10/11 07:00:27;;;;;;;17.00;8.77;;;19.00;99.60;;;;;;6072447;23;20028;-75
2023/10/11 07:03:21;;;;;;;18.48;9.00;;;19.10;99.90;;;;;;6097204;23;20468;-75
2023/10/11 07:05:48;;;;;;;16.20;7.72;;;18.80;99.90;;;;;;6097515;23;20084;-75
2023/10/11 07:08:19;;;;;;;16.70;8.68;;;18.70;98.30;;;;;;6096842;23;20030;-75
2023/10/11 07:11:10;;;;;;;17.17;7.68;;;18.80;96.30;;;;;;6096688;23;20334;-75
2023/10/11 07:13:57;;;;;;;18.98;9.02;;;18.60;97.10;;;;;;6096980;23;20014;-75
2023/10/11 07:16:28;;;;;;;18.90;8.32;;;18.90;95.60;;;;;;6073250;23;20068;-75
2023/10/11 07:18:54;;;;;;;15.55;8.60;;;18.90;92.40;;;;;;6072857;23;20020;-75
2023/10/11 07:21:51;;;;;;;14.63;8.15;;;18.70;89.20;;;;;;6072570;23;20046;-75
2023/10/11 07:24:19;;;;;;;10.35;6.30;;;18.70;67.90;;;;;;6096269;23;20221;-75
2023/10/11 07:29:16;;;;;;;15.18;6.95;;;18.90;76.50;;;;;;6096296;23;20025;-75
2023/10/11 07:31:48;;;;;;;17.52;7.45;;;19.10;64.30;;;;;;6073357;23;20061;-75
2023/10/11 07:34:20;;;;;;;12.05;6.55;;;18.80;68.10;;;;;;6096974;23;20025;-75
2023/10/11 07:36:48;;;;;;;14.65;6.82;;;19.10;72.90;;;;;;6097507;23;20437;-75
2023/10/11 07:44:31;;;;;;;15.60;6.82;;;18.90;54.20;;;;;;6096537;23;20022;-75
2023/10/11 07:46:58;;;;;;;12.00;6.13;;;18.60;42.30;;;;;;6097115;23;20021;-76
2023/10/11 07:49:24;;;;;;;11.30;5.93;;;18.80;41.40;;;;;;6096724;23;20010;-75
2023/10/11 07:52:01;;;;;;;11.52;6.40;;;18.80;41.00;;;;;;6098038;23;20025;-75
2023/10/11 07:54:27;;;;;;;11.75;6.65;;;19.40;37.90;;;;;;6073333;23;20009;-75
2023/10/11 07:56:57;;;;;;;19.63;8.10;;;18.90;32.00;;;;;;6097304;23;20257;-76
2023/10/11 07:59:26;;;;;;;13.95;6.53;;;19.40;25.40;;;;;;6072923;23;20010;-75
2023/10/11 08:01:59;;;;;;;17.27;6.35;;;18.70;23.80;;;;;;6097191;23;20029;-75
2023/10/11 08:04:29;;;;;;;14.68;6.93;;;19.00;25.00;;;;;;6099275;23;20018;-75
2023/10/11 08:07:03;;;;;;;17.42;7.00;;;18.70;19.20;;;;;;6074860;23;20582;-75
2023/10/11 08:09:45;;;;;;;16.48;7.75;;;19.10;16.50;;;;;;6074356;23;20348;-75
2023/10/11 08:12:15;;;;;;;18.45;9.52;;;18.90;23.50;;;;;;6075053;23;20006;-75
2023/10/11 08:14:45;;;;;;;17.60;8.05;;;18.90;24.40;;;;;;6075249;23;20010;-75
2023/10/11 08:17:19;;;;;;;15.73;7.60;;;18.20;24.00;;;;;;6074787;23;20018;-75
2023/10/11 08:19:46;;;;;;;15.73;8.50;;;18.60;28.30;;;;;;6099015;23;20010;-75
2023/10/11 08:22:16;;;;;;;13.98;7.63;;;19.00;25.70;;;;;;6098832;23;20097;-75
2023/10/11 08:24:48;;;;;;;16.83;7.60;;;18.50;5.50;;;;;;6098996;23;20033;-75
2023/10/11 08:27:22;;;;;;;13.77;8.10;;;18.80;18.00;;;;;;6098780;23;20014;-75
2023/10/11 08:29:53;;;;;;;15.43;8.13;;;18.90;19.10;;;;;;6098298;23;20156;-75
2023/10/11 08:32:25;;;;;;;15.23;7.90;;;18.80;11.40;;;;;;6098507;23;20093;-75
2023/10/11 08:34:51;;;;;;;13.60;7.22;;;19.10;14.30;;;;;;6121315;23;20064;-75
2023/10/11 08:37:17;;;;;;;14.77;7.50;;;18.60;6.00;;;;;;6121797;23;20025;-75
2023/10/11 08:39:44;;;;;;;13.00;7.10;;;18.60;1.00;;;;;;6122252;23;20014;-75
2023/10/11 08:42:14;;;;;;;9.73;6.00;;;18.70;1.00;;;;;;6098772;23;20471;-75
2023/10/11 08:44:47;;;;;;;16.63;6.38;;;18.50;1.00;;;;;;6098370;23;20037;-75
2023/10/11 08:47:16;;;;;;;12.65;7.60;;;18.90;1.00;;;;;;6122546;23;20089;-75
2023/10/11 08:49:48;;;;;;;11.88;5.88;;;18.00;1.00;;;;;;6098140;23;20033;-75
2023/10/11 08:52:24;;;;;;;12.05;6.60;;;18.10;1.00;;;;;;6098059;23;20006;-75
2023/10/11 08:54:51;;;;;;;12.25;6.57;;;18.70;1.00;;;;;;6098587;23;20093;-75
2023/10/11 08:57:25;;;;;;;12.43;6.07;;;18.70;1.00;;;;;;6122690;23;20018;-75
2023/10/11 08:59:56;;;;;;;;;;;18.90;1.00;;;;;;6098198;23;20026;-75
2023/10/11 09:02:34;;;;;;;13.75;6.38;;;18.00;1.00;;;;;;6122649;23;19919;-75
2023/10/11 09:05:07;;;;;;;11.45;6.32;;;18.60;1.00;;;;;;6123019;23;20018;-75
2023/10/11 09:07:45;;;;;;;12.07;6.72;;;18.80;1.00;;;;;;6098185;23;20046;-75
2023/10/11 09:10:32;;;;;;;13.52;7.10;;;19.10;1.00;;;;;;6121630;23;20014;-75
2023/10/11 09:13:01;;;;;;;12.93;6.78;;;19.00;1.00;;;;;;6098134;23;20042;-75
2023/10/11 09:15:44;;;;;;;13.60;7.35;;;19.00;1.00;;;;;;6122522;23;20014;-75
2023/10/11 09:18:19;;;;;;;11.32;6.50;;;18.80;1.00;;;;;;6098278;23;20014;-75
2023/10/11 09:20:56;;;;;;;10.90;6.35;;;18.90;1.00;;;;;;6122370;23;20021;-75
2023/10/11 09:23:51;;;;;;;8.75;5.15;;;19.00;1.00;;;;;;6098035;23;20024;-75
2023/10/11 09:26:34;;;;;;;15.55;6.80;;;18.10;1.00;;;;;;6098360;23;20014;-75
2023/10/11 09:29:02;;;;;;;12.50;6.57;;;18.80;1.00;;;;;;6122504;23;20341;-75
2023/10/11 09:31:32;;;;;;;14.15;6.40;;;18.90;1.00;;;;;;6121659;23;20471;-75
2023/10/11 09:34:07;;;;;;;11.68;5.68;;;19.30;1.00;;;;;;6122767;23;20084;-75
2023/10/11 09:36:33;;;;;;;9.95;5.53;;;18.70;1.00;;;;;;6122041;23;20022;-75
2023/10/11 09:39:02;;;;;;;10.05;5.50;;;;;;;;;;6122353;23;20021;-75
2023/10/11 09:41:38;;;;;;;12.80;5.63;;;18.80;1.00;;;;;;6121742;23;20611;-75
2023/10/11 09:44:10;;;;;;;9.85;5.80;;;18.70;1.00;;;;;;6122576;23;20014;-75
2023/10/11 09:46:36;;;;;;;12.15;5.25;;;18.80;1.00;;;;;;6098157;23;20014;-75
2023/10/11 09:49:12;;;;;;;10.38;5.53;;;19.00;1.00;;;;;;6122223;23;20096;-75
2023/10/11 09:51:41;;;;;;;9.68;5.18;;;18.70;1.00;;;;;;6097624;23;20127;-75
2023/10/11 09:54:12;;;;;;;12.00;5.60;;;19.20;1.00;;;;;;6122438;23;20355;-75
2023/10/11 09:56:57;;;;;;;10.45;5.80;;;18.80;1.00;;;;;;6097819;23;20344;-75
2023/10/11 09:59:30;;;;;;;10.52;5.88;;;19.10;9.70;;;;;;6121418;23;20036;-74
2023/10/11 10:02:22;;;;;;;13.57;5.63;;;18.60;19.70;;;;;;6098020;23;20014;-75
2023/10/11 10:04:51;;;;;;;9.85;5.50;;;18.70;27.00;;;;;;6122464;23;20471;-75
2023/10/11 10:07:26;;;;;;;10.07;4.88;;;19.20;24.20;;;;;;6097754;23;20585;-75
2023/10/11 10:10:00;;;;;;;11.02;4.65;;;18.60;47.90;;;;;;6097041;23;20027;-75
2023/10/11 10:12:33;;;;;;;9.98;4.60;;;19.00;65.30;;;;;;6122068;23;20010;-75
2023/10/11 10:15:14;;;;;;;10.40;4.70;;;18.60;91.60;;;;;;6098028;23;20010;-75
2023/10/11 10:18:05;;;;;;;12.35;5.18;;;18.90;88.60;;;;;;6122198;23;20094;-75
2023/10/11 10:20:34;;;;;;;10.00;4.80;;;19.20;96.10;;;;;;6121394;23;20071;-75
2023/10/11 10:23:17;;;;;;;10.13;4.40;;;18.80;99.90;;;;;;6097666;23;20017;-75
2023/10/11 10:25:48;;;;;;;7.43;3.95;;;19.00;99.90;;;;;;6121516;23;20018;-75
2023/10/11 10:28:32;;;;;;;11.05;5.30;;;19.00;99.90;;;;;;6122003;23;20072;-75
2023/10/11 10:31:16;;;;;;;9.75;4.70;;;19.00;99.90;;;;;;6121721;23;20392;-75
2023/10/11 10:34:04;;;;;;;13.38;5.25;;;18.80;99.90;;;;;;6097344;23;20014;-75
2023/10/11 10:36:31;;;;;;;7.82;3.80;;;18.80;99.90;;;;;;6121812;23;20014;-75
2023/10/11 10:39:00;;;;;;;10.93;4.28;;;19.30;99.90;;;;;;6097518;23;20092;-75
2023/10/11 10:41:30;;;;;;;8.15;4.40;;;19.40;99.90;;;;;;6097200;23;20014;-75
2023/10/11 10:44:06;;;;;;;11.05;4.10;;;19.20;99.90;;;;;;6097569;23;20014;-75
2023/10/11 10:46:33;;;;;;;8.93;3.80;;;19.10;99.90;;;;;;6097231;23;20014;-75
2023/10/11 10:49:01;;;;;;;9.98;4.75;;;18.60;99.90;;;;;;6121902;23;20014;-75
2023/10/11 10:51:36;;;;;;;8.80;4.35;;;19.30;99.90;;;;;;6097023;23;20060;-75
2023/10/11 10:54:17;;;;;;;9.15;4.47;;;19.50;99.90;;;;;;6097498;23;20141;-75
2023/10/11 10:56:53;;;;;;;9.32;4.20;;;18.80;99.90;;;;;;6097631;23;20356;-75
2023/10/11 10:59:20;;;;;;;9.10;4.60;;;19.00;99.90;;;;;;6096852;23;20021;-75
2023/10/11 11:01:50;;;;;;;7.97;3.50;;;19.20;99.90;;;;;;6121474;23;20014;-75
2023/10/11 11:04:20;;;;;;;9.25;4.07;;;19.10;99.90;;;;;;6097413;23;20440;-75
2023/10/11 11:06:51;;;;;;;8.55;4.07;;;18.70;99.90;;;;;;6121578;23;20077;-75
2023/10/11 11:09:19;;;;;;;7.28;3.67;;;18.80;99.90;;;;;;6096889;23;20101;-75
2023/10/11 11:11:46;;;;;;;8.60;3.35;;;19.40;99.90;;;;;;6121437;23;20302;-75
2023/10/11 11:14:14;;;;;;;11.65;3.80;;;18.90;99.90;;;;;;6121169;23;20017;-75
2023/10/11 11:16:43;;;;;;;14.13;4.20;;;19.10;99.90;;;;;;6121555;23;20018;-75
2023/10/11 11:19:16;;;;;;;13.80;4.55;;;19.30;99.90;;;;;;6097113;23;20026;-75
2023/10/11 11:21:44;;;;;;;9.57;3.85;;;18.50;99.90;;;;;;6121110;23;20534;-75
2023/10/11 11:24:18;;;;;;;10.43;4.00;;;19.10;99.90;;;;;;6097787;23;20463;-75
2023/10/11 11:26:45;;;;;;;10.05;3.97;;;19.20;99.90;;;;;;6121244;23;20498;-75
2023/10/11 11:29:16;;;;;;;9.18;4.35;;;19.20;99.90;;;;;;6121976;23;20020;-75
2023/10/11 11:31:52;;;;;;;12.27;4.47;;;18.80;99.90;;;;;;6120978;23;20009;-75
2023/10/11 11:34:28;;;;;;;13.15;4.18;;;18.90;99.90;;;;;;6121698;23;20014;-75
2023/10/11 11:36:58;;;;;;;9.60;4.15;;;19.00;99.90;;;;;;6121368;23;20459;-75
2023/10/11 11:39:27;;;;;;;11.48;4.65;;;19.50;99.90;;;;;;6096456;23;20045;-75
2023/10/11 11:41:57;;;;;;;13.38;4.53;;;19.30;99.90;;;;;;6121118;23;20466;-75
2023/10/11 11:44:24;;;;;;;10.00;4.28;;;19.20;99.90;;;;;;6121546;23;20033;-75
2023/10/11 11:46:54;;;;;;;11.07;4.82;;;19.10;99.90;;;;;;6121369;23;20014;-75
2023/10/11 11:49:23;;;;;;;11.63;4.50;;;19.00;99.90;;;;;;6096480;23;20469;-75
2023/10/11 11:51:53;;;;;;;10.18;4.53;;;18.80;99.90;;;;;;6121085;23;20041;-75
2023/10/11 11:54:20;;;;;;;9.52;4.43;;;19.10;99.90;;;;;;6121542;23;20010;-75
2023/10/11 11:56:47;;;;;;;14.88;4.50;;;18.90;99.90;;;;;;6121256;23;20047;-75
2023/10/11 11:59:19;;;;;;;10.05;4.03;;;18.90;99.90;;;;;;6120689;23;20460;-75
2023/10/11 12:01:49;;;;;;;12.10;4.45;;;19.00;99.90;;;;;;6121356;23;20264;-75
2023/10/11 12:04:20;;;;;;;9.82;3.97;;;19.10;99.90;;;;;;6096984;23;20025;-75
2023/10/11 12:06:47;;;;;;;10.98;4.57;;;19.10;99.90;;;;;;6121189;23;20018;-75
2023/10/11 12:09:17;;;;;;;15.00;4.72;;;18.90;99.90;;;;;;6120887;23;20020;-75
2023/10/11 12:11:45;;;;;;;10.30;4.00;;;18.90;99.90;;;;;;6096895;23;20006;-75
2023/10/11 12:14:12;;;;;;;10.20;4.72;;;18.80;99.90;;;;;;6096944;23;20010;-75
2023/10/11 12:16:42;;;;;;;12.60;4.32;;;18.90;99.90;;;;;;6096674;23;20026;-75
2023/10/11 12:19:11;;;;;;;11.95;4.53;;;19.10;99.90;;;;;;6121460;23;20041;-75
2023/10/11 12:21:37;;;;;;;12.20;4.63;;;19.10;99.90;;;;;;6120401;23;20400;-75
2023/10/11 12:24:10;;;;;;;13.88;3.97;;;18.90;99.90;;;;;;6121573;23;20025;-75
2023/10/11 12:26:40;;;;;;;9.88;4.20;;;18.30;99.90;;;;;;6096745;23;20455;-75
2023/10/11 12:29:09;;;;;;;8.70;4.20;;;19.20;99.90;;;;;;6096853;23;20033;-75
2023/10/11 12:31:38;;;;;;;10.68;4.07;;;19.30;99.90;;;;;;6120641;23;20487;-75
2023/10/11 12:34:11;;;;;;;9.90;4.75;;;19.00;99.90;;;;;;6121466;23;20014;-75
2023/10/11 12:36:41;;;;;;;10.73;4.95;;;19.20;99.90;;;;;;6096822;23;20014;-75
2023/10/11 12:39:20;;;;;;;8.98;3.63;;;19.00;99.90;;;;;;6121273;23;20017;-75
2023/10/11 12:41:51;;;;;;;10.82;4.20;;;19.50;99.90;;;;;;6096446;23;20097;-75
2023/10/11 12:44:20;;;;;;;11.13;4.40;;;18.70;99.90;;;;;;6121061;23;20017;-75
2023/10/11 12:46:49;;;;;;;12.52;4.60;;;19.60;99.90;;;;;;6096603;23;20494;-75
2023/10/11 12:49:18;;;;;;;11.35;4.72;;;19.20;99.90;;;;;;6121751;23;20400;-75
2023/10/11 12:51:46;;;;;;;11.75;4.38;;;19.00;1.00;;;;;;6122684;23;20325;-75
2023/10/11 12:54:15;;;;;;;12.20;4.28;;;18.90;1.00;;;;;;6123324;23;20014;-75
2023/10/11 12:56:44;;;;;;;10.07;4.18;;;19.40;1.00;;;;;;6122521;23;20478;-75
2023/10/11 12:59:12;;;;;;;8.52;4.03;;;20.30;1.00;;;;;;6122604;23;20018;-75
2023/10/11 13:01:50;;;;;;;8.40;4.13;;;18.90;1.00;;;;;;6098471;23;20022;-75
2023/10/11 13:04:24;;;;;;;11.02;4.88;;;19.50;1.00;;;;;;6123479;23;20014;-75
2023/10/11 13:06:50;;;;;;;9.52;4.10;;;19.50;1.00;;;;;;6122384;23;20065;-75
2023/10/11 13:09:21;;;;;;;8.73;4.30;;;19.20;1.00;;;;;;6122201;23;20014;-75
2023/10/11 13:11:47;;;;;;;10.57;4.50;;;18.90;1.00;;;;;;6098272;23;20035;-75
2023/10/11 13:14:20;;;;;;;10.93;4.20;;;18.90;1.00;;;;;;6122645;23;20010;-75
2023/10/11 13:16:48;;;;;;;10.90;4.30;;;19.40;1.00;;;;;;6098089;23;20013;-75
2023/10/11 13:19:19;;;;;;;9.50;3.97;;;19.10;1.00;;;;;;6122158;23;20144;-75
2023/10/11 13:21:46;;;;;;;9.63;4.22;;;19.00;1.00;;;;;;6098015;23;20024;-75
2023/10/11 13:24:12;;;;;;;9.07;3.63;;;19.20;1.00;;;;;;6098590;23;20018;-75
2023/10/11 13:26:43;;;;;;;9.10;4.40;;;19.30;1.00;;;;;;6098035;23;20781;-75
2023/10/11 13:29:18;;;;;;;13.05;4.63;;;19.50;1.00;;;;;;6122523;23;20010;-76
2023/10/11 13:31:48;;;;;;;9.98;4.20;;;19.20;1.00;;;;;;6122082;23;20037;-75
2023/10/11 13:34:14;;;;;;;13.77;5.25;;;19.10;1.00;;;;;;6122684;23;20006;-75
2023/10/11 13:36:41;;;;;;;11.07;4.40;;;18.60;1.00;;;;;;6098101;23;20056;-75
2023/10/11 13:39:25;;;;;;;9.30;4.25;;;19.20;1.00;;;;;;6098060;23;20020;-75
2023/10/11 13:41:55;;;;;;;13.68;4.25;;;19.30;1.00;;;;;;6122008;23;20021;-75
2023/10/11 13:44:21;;;;;;;9.50;4.47;;;19.20;1.00;;;;;;6122378;23;20065;-75
2023/10/11 13:46:57;;;;;;;12.48;4.25;;;19.70;1.00;;;;;;6122329;23;20148;-75
2023/10/11 13:49:24;;;;;;;10.85;4.70;;;19.20;1.00;;;;;;6122265;23;20068;-75
2023/10/11 13:51:58;;;;;;;7.65;3.60;;;19.30;1.00;;;;;;6122282;23;20037;-75
2023/10/11 13:54:45;;;;;;;13.23;4.68;;;19.20;1.00;;;;;;6098133;23;20010;-75
2023/10/11 13:57:18;;;;;;;14.60;4.80;;;19.30;1.00;;;;;;6098547;23;20032;-75
2023/10/11 13:59:48;;;;;;;10.52;4.43;;;19.50;1.00;;;;;;6122920;23;20021;-75
2023/10/11 14:07:48;;;;;;;11.60;3.92;;;19.20;1.00;;;;;;6122210;23;20028;-75
2023/10/11 14:10:16;;;;;;;8.50;4.28;;;19.20;1.00;;;;;;6121750;23;20014;-75
2023/10/11 14:12:43;;;;;;;10.30;3.85;;;19.30;1.00;;;;;;6097518;23;20085;-75
2023/10/11 14:15:12;;;;;;;9.13;4.00;;;19.20;1.00;;;;;;6122075;23;20041;-75